sensor_id;sensor_type;location;lat;lon;timestamp;temperature;humidity
13682;DHT22;6913;49.892;7.936;2023-07-29T00:00:07;18.40;99.90
13682;DHT22;6913;49.892;7.936;2023-07-29T00:02:34;18.40;99.90
13682;DHT22;6913;49.892;7.936;2023-07-29T00:05:01;18.60;99.90
13682;DHT22;6913;49.892;7.936;2023-07-29T00:07:28;18.40;99.90
13682;DHT22;6913;49.892;7.936;2023-07-29T00:09:55;18.60;99.90
13682;DHT22;6913;49.892;7.936;2023-07-29T00:12:23;18.60;99.90
13682;DHT22;6913;49.892;7.936;2023-07-29T00:14:50;18.40;99.90
13682;DHT22;6913;49.892;7.936;2023-07-29T00:17:16;19.10;99.90
13682;DHT22;6913;49.892;7.936;2023-07-29T00:19:45;18.10;99.90
13682;DHT22;6913;49.892;7.936;2023-07-29T00:22:12;18.10;99.90
13682;DHT22;6913;49.892;7.936;2023-07-29T00:24:39;19.20;99.90
13682;DHT22;6913;49.892;7.936;2023-07-29T00:27:06;18.70;99.90
13682;DHT22;6913;49.892;7.936;2023-07-29T00:29:34;19.00;99.90
13682;DHT22;6913;49.892;7.936;2023-07-29T00:32:01;19.20;99.90
13682;DHT22;6913;49.892;7.936;2023-07-29T00:34:28;18.30;99.90
13682;DHT22;6913;49.892;7.936;2023-07-29T00:36:56;18.30;99.90
13682;DHT22;6913;49.892;7.936;2023-07-29T00:39:23;18.30;99.90
13682;DHT22;6913;49.892;7.936;2023-07-29T00:41:49;18.80;99.90
13682;DHT22;6913;49.892;7.936;2023-07-29T00:44:16;18.30;99.90
13682;DHT22;6913;49.892;7.936;2023-07-29T00:46:46;18.30;99.90
13682;DHT22;6913;49.892;7.936;2023-07-29T00:49:13;18.00;99.90
13682;DHT22;6913;49.892;7.936;2023-07-29T00:51:40;18.00;99.90
13682;DHT22;6913;49.892;7.936;2023-07-29T00:54:07;18.00;99.90
13682;DHT22;6913;49.892;7.936;2023-07-29T00:56:33;17.70;99.90
13682;DHT22;6913;49.892;7.936;2023-07-29T00:59:01;17.80;99.90
13682;DHT22;6913;49.892;7.936;2023-07-29T01:01:28;17.90;99.90
13682;DHT22;6913;49.892;7.936;2023-07-29T01:03:56;17.90;99.90
13682;DHT22;6913;49.892;7.936;2023-07-29T01:06:29;18.00;99.90
13682;DHT22;6913;49.892;7.936;2023-07-29T01:09:02;18.00;99.90
13682;DHT22;6913;49.892;7.936;2023-07-29T01:11:35;18.00;99.90
13682;DHT22;6913;49.892;7.936;2023-07-29T01:14:11;18.60;99.90
13682;DHT22;6913;49.892;7.936;2023-07-29T01:16:41;18.00;99.90
13682;DHT22;6913;49.892;7.936;2023-07-29T01:19:24;18.30;99.90
13682;DHT22;6913;49.892;7.936;2023-07-29T01:21:54;18.10;99.90
13682;DHT22;6913;49.892;7.936;2023-07-29T01:24:22;18.00;99.90
13682;DHT22;6913;49.892;7.936;2023-07-29T01:26:49;17.90;99.90
13682;DHT22;6913;49.892;7.936;2023-07-29T01:29:16;17.60;99.90
13682;DHT22;6913;49.892;7.936;2023-07-29T01:31:44;17.60;99.90
13682;DHT22;6913;49.892;7.936;2023-07-29T01:34:15;18.20;99.90
13682;DHT22;6913;49.892;7.936;2023-07-29T01:36:45;17.90;99.90
13682;DHT22;6913;49.892;7.936;2023-07-29T01:39:14;18.00;99.90
13682;DHT22;6913;49.892;7.936;2023-07-29T01:41:45;18.20;99.90
13682;DHT22;6913;49.892;7.936;2023-07-29T01:44:12;18.50;99.90
13682;DHT22;6913;49.892;7.936;2023-07-29T01:46:40;18.20;99.90
13682;DHT22;6913;49.892;7.936;2023-07-29T01:49:06;18.50;99.90
13682;DHT22;6913;49.892;7.936;2023-07-29T01:51:33;18.30;99.90
13682;DHT22;6913;49.892;7.936;2023-07-29T01:54:00;18.60;99.90
13682;DHT22;6913;49.892;7.936;2023-07-29T01:56:27;18.40;99.90
13682;DHT22;6913;49.892;7.936;2023-07-29T01:58:55;18.60;99.90
13682;DHT22;6913;49.892;7.936;2023-07-29T02:01:22;18.70;99.90
13682;DHT22;6913;49.892;7.936;2023-07-29T02:03:49;18.10;99.90
13682;DHT22;6913;49.892;7.936;2023-07-29T02:06:20;17.80;99.90
13682;DHT22;6913;49.892;7.936;2023-07-29T02:08:47;17.60;99.90
13682;DHT22;6913;49.892;7.936;2023-07-29T02:11:14;17.90;99.90
13682;DHT22;6913;49.892;7.936;2023-07-29T02:13:40;17.90;99.90
13682;DHT22;6913;49.892;7.936;2023-07-29T02:16:08;18.40;99.90
13682;DHT22;6913;49.892;7.936;2023-07-29T02:18:35;18.20;99.90
13682;DHT22;6913;49.892;7.936;2023-07-29T02:21:02;18.40;99.90
13682;DHT22;6913;49.892;7.936;2023-07-29T02:23:30;18.30;99.90
13682;DHT22;6913;49.892;7.936;2023-07-29T02:25:56;18.30;99.90
13682;DHT22;6913;49.892;7.936;2023-07-29T02:28:23;18.40;99.90
13682;DHT22;6913;49.892;7.936;2023-07-29T02:31:15;18.20;99.90
13682;DHT22;6913;49.892;7.936;2023-07-29T02:33:42;18.20;99.90
13682;DHT22;6913;49.892;7.936;2023-07-29T02:36:09;18.30;99.90
13682;DHT22;6913;49.892;7.936;2023-07-29T02:38:35;18.60;99.90
13682;DHT22;6913;49.892;7.936;2023-07-29T02:41:02;18.30;99.90
13682;DHT22;6913;49.892;7.936;2023-07-29T02:43:29;18.60;99.90
13682;DHT22;6913;49.892;7.936;2023-07-29T02:45:56;18.30;99.90
13682;DHT22;6913;49.892;7.936;2023-07-29T02:48:25;18.30;99.90
13682;DHT22;6913;49.892;7.936;2023-07-29T02:50:51;18.40;99.90
13682;DHT22;6913;49.892;7.936;2023-07-29T02:53:18;18.40;99.90
13682;DHT22;6913;49.892;7.936;2023-07-29T02:55:45;18.30;99.90
13682;DHT22;6913;49.892;7.936;2023-07-29T02:58:12;18.50;99.90
13682;DHT22;6913;49.892;7.936;2023-07-29T03:00:39;18.20;99.90
13682;DHT22;6913;49.892;7.936;2023-07-29T03:03:07;18.20;99.90
13682;DHT22;6913;49.892;7.936;2023-07-29T03:05:35;18.20;99.90
13682;DHT22;6913;49.892;7.936;2023-07-29T03:08:03;18.10;99.90
13682;DHT22;6913;49.892;7.936;2023-07-29T03:10:30;18.10;99.90
13682;DHT22;6913;49.892;7.936;2023-07-29T03:12:57;18.00;99.90
13682;DHT22;6913;49.892;7.936;2023-07-29T03:15:24;18.00;99.90
13682;DHT22;6913;49.892;7.936;2023-07-29T03:17:51;18.00;99.90
13682;DHT22;6913;49.892;7.936;2023-07-29T03:20:19;18.10;99.90
13682;DHT22;6913;49.892;7.936;2023-07-29T03:22:47;18.00;99.90
13682;DHT22;6913;49.892;7.936;2023-07-29T03:25:14;17.90;99.90
13682;DHT22;6913;49.892;7.936;2023-07-29T03:27:41;17.90;99.90
13682;DHT22;6913;49.892;7.936;2023-07-29T03:30:08;17.90;99.90
13682;DHT22;6913;49.892;7.936;2023-07-29T03:32:35;17.80;99.90
13682;DHT22;6913;49.892;7.936;2023-07-29T03:35:02;17.60;99.90
13682;DHT22;6913;49.892;7.936;2023-07-29T03:37:29;17.50;99.90
13682;DHT22;6913;49.892;7.936;2023-07-29T03:39:57;17.60;99.90
13682;DHT22;6913;49.892;7.936;2023-07-29T03:42:24;18.50;99.90
13682;DHT22;6913;49.892;7.936;2023-07-29T03:44:51;18.30;99.90
13682;DHT22;6913;49.892;7.936;2023-07-29T03:47:18;18.30;99.90
13682;DHT22;6913;49.892;7.936;2023-07-29T03:49:44;18.40;99.90
13682;DHT22;6913;49.892;7.936;2023-07-29T03:52:11;18.00;99.90
13682;DHT22;6913;49.892;7.936;2023-07-29T03:54:38;17.60;99.90
13682;DHT22;6913;49.892;7.936;2023-07-29T03:57:06;17.60;99.90
13682;DHT22;6913;49.892;7.936;2023-07-29T03:59:33;17.50;99.90
13682;DHT22;6913;49.892;7.936;2023-07-29T04:02:01;17.50;99.90
13682;DHT22;6913;49.892;7.936;2023-07-29T04:04:28;18.00;99.90
13682;DHT22;6913;49.892;7.936;2023-07-29T04:06:55;17.80;99.90
13682;DHT22;6913;49.892;7.936;2023-07-29T04:09:21;18.60;99.90
13682;DHT22;6913;49.892;7.936;2023-07-29T04:11:48;17.40;99.90
13682;DHT22;6913;49.892;7.936;2023-07-29T04:14:16;17.60;99.90
13682;DHT22;6913;49.892;7.936;2023-07-29T04:16:43;17.50;99.90
13682;DHT22;6913;49.892;7.936;2023-07-29T04:19:10;17.50;99.90
13682;DHT22;6913;49.892;7.936;2023-07-29T04:21:37;17.50;99.90
13682;DHT22;6913;49.892;7.936;2023-07-29T04:24:04;17.60;99.90
13682;DHT22;6913;49.892;7.936;2023-07-29T04:26:31;17.50;99.90
13682;DHT22;6913;49.892;7.936;2023-07-29T04:28:58;18.80;99.90
13682;DHT22;6913;49.892;7.936;2023-07-29T04:31:26;18.00;99.90
13682;DHT22;6913;49.892;7.936;2023-07-29T04:33:53;17.50;99.90
13682;DHT22;6913;49.892;7.936;2023-07-29T04:36:19;17.60;99.90
13682;DHT22;6913;49.892;7.936;2023-07-29T04:38:46;18.80;99.90
13682;DHT22;6913;49.892;7.936;2023-07-29T04:41:13;17.80;99.90
13682;DHT22;6913;49.892;7.936;2023-07-29T04:43:40;17.70;99.90
13682;DHT22;6913;49.892;7.936;2023-07-29T04:46:07;17.80;99.90
13682;DHT22;6913;49.892;7.936;2023-07-29T04:48:35;17.90;99.90
13682;DHT22;6913;49.892;7.936;2023-07-29T04:51:02;17.80;99.90
13682;DHT22;6913;49.892;7.936;2023-07-29T04:53:29;17.90;99.90
13682;DHT22;6913;49.892;7.936;2023-07-29T04:55:56;18.10;99.90
13682;DHT22;6913;49.892;7.936;2023-07-29T04:58:23;18.20;99.90
13682;DHT22;6913;49.892;7.936;2023-07-29T05:00:49;19.60;99.90
13682;DHT22;6913;49.892;7.936;2023-07-29T05:03:16;19.10;99.90
13682;DHT22;6913;49.892;7.936;2023-07-29T05:05:44;18.90;99.90
13682;DHT22;6913;49.892;7.936;2023-07-29T05:08:11;18.70;99.90
13682;DHT22;6913;49.892;7.936;2023-07-29T05:10:38;18.50;99.90
13682;DHT22;6913;49.892;7.936;2023-07-29T05:13:05;18.70;99.90
13682;DHT22;6913;49.892;7.936;2023-07-29T05:15:31;19.00;99.90
13682;DHT22;6913;49.892;7.936;2023-07-29T05:17:58;18.70;99.90
13682;DHT22;6913;49.892;7.936;2023-07-29T05:20:25;18.50;99.90
13682;DHT22;6913;49.892;7.936;2023-07-29T05:22:53;19.30;99.90
13682;DHT22;6913;49.892;7.936;2023-07-29T05:25:20;19.40;99.90
13682;DHT22;6913;49.892;7.936;2023-07-29T05:27:47;19.50;99.90
13682;DHT22;6913;49.892;7.936;2023-07-29T05:30:14;19.50;99.90
13682;DHT22;6913;49.892;7.936;2023-07-29T05:32:41;18.70;99.90
13682;DHT22;6913;49.892;7.936;2023-07-29T05:35:08;18.90;99.90
13682;DHT22;6913;49.892;7.936;2023-07-29T05:37:37;18.30;99.90
13682;DHT22;6913;49.892;7.936;2023-07-29T05:40:07;18.40;99.90
13682;DHT22;6913;49.892;7.936;2023-07-29T05:42:35;18.20;99.90
13682;DHT22;6913;49.892;7.936;2023-07-29T05:45:02;18.40;99.90
13682;DHT22;6913;49.892;7.936;2023-07-29T05:47:29;18.30;99.90
13682;DHT22;6913;49.892;7.936;2023-07-29T05:49:56;18.10;99.90
13682;DHT22;6913;49.892;7.936;2023-07-29T05:52:22;18.50;99.90
13682;DHT22;6913;49.892;7.936;2023-07-29T05:54:49;18.20;99.90
13682;DHT22;6913;49.892;7.936;2023-07-29T05:57:17;19.00;99.90
13682;DHT22;6913;49.892;7.936;2023-07-29T05:59:44;19.00;99.90
13682;DHT22;6913;49.892;7.936;2023-07-29T06:02:11;18.00;99.90
13682;DHT22;6913;49.892;7.936;2023-07-29T06:04:38;18.40;99.90
13682;DHT22;6913;49.892;7.936;2023-07-29T06:07:05;17.50;99.90
13682;DHT22;6913;49.892;7.936;2023-07-29T06:09:32;17.40;99.90
13682;DHT22;6913;49.892;7.936;2023-07-29T06:11:59;17.40;99.90
13682;DHT22;6913;49.892;7.936;2023-07-29T06:14:27;17.60;99.90
13682;DHT22;6913;49.892;7.936;2023-07-29T06:16:54;17.40;99.90
13682;DHT22;6913;49.892;7.936;2023-07-29T06:19:20;18.20;99.90
13682;DHT22;6913;49.892;7.936;2023-07-29T06:21:48;18.10;99.90
13682;DHT22;6913;49.892;7.936;2023-07-29T06:24:15;18.20;99.90
13682;DHT22;6913;49.892;7.936;2023-07-29T06:26:41;18.10;99.90
13682;DHT22;6913;49.892;7.936;2023-07-29T06:29:08;17.90;99.90
13682;DHT22;6913;49.892;7.936;2023-07-29T06:31:36;17.90;99.90
13682;DHT22;6913;49.892;7.936;2023-07-29T06:34:03;17.50;99.90
13682;DHT22;6913;49.892;7.936;2023-07-29T06:36:30;17.60;99.90
13682;DHT22;6913;49.892;7.936;2023-07-29T06:38:57;17.70;99.90
13682;DHT22;6913;49.892;7.936;2023-07-29T06:41:23;17.80;99.90
13682;DHT22;6913;49.892;7.936;2023-07-29T06:43:50;18.10;99.90
13682;DHT22;6913;49.892;7.936;2023-07-29T06:46:17;18.00;99.90
13682;DHT22;6913;49.892;7.936;2023-07-29T06:48:45;18.50;99.90
13682;DHT22;6913;49.892;7.936;2023-07-29T06:51:12;18.50;99.90
13682;DHT22;6913;49.892;7.936;2023-07-29T06:53:39;18.40;99.90
13682;DHT22;6913;49.892;7.936;2023-07-29T06:56:05;18.20;99.90
13682;DHT22;6913;49.892;7.936;2023-07-29T06:58:32;18.50;99.90
13682;DHT22;6913;49.892;7.936;2023-07-29T07:00:59;18.50;99.90
13682;DHT22;6913;49.892;7.936;2023-07-29T07:03:26;18.60;99.90
13682;DHT22;6913;49.892;7.936;2023-07-29T07:05:54;18.50;99.90
13682;DHT22;6913;49.892;7.936;2023-07-29T07:08:21;18.60;99.90
13682;DHT22;6913;49.892;7.936;2023-07-29T07:10:47;18.90;99.90
13682;DHT22;6913;49.892;7.936;2023-07-29T07:13:14;18.70;99.90
13682;DHT22;6913;49.892;7.936;2023-07-29T07:15:41;18.80;99.90
13682;DHT22;6913;49.892;7.936;2023-07-29T07:18:08;18.50;99.90
13682;DHT22;6913;49.892;7.936;2023-07-29T07:20:35;19.00;99.90
13682;DHT22;6913;49.892;7.936;2023-07-29T07:23:03;18.70;99.90
13682;DHT22;6913;49.892;7.936;2023-07-29T07:25:34;19.00;99.90
13682;DHT22;6913;49.892;7.936;2023-07-29T07:28:01;18.90;99.90
13682;DHT22;6913;49.892;7.936;2023-07-29T07:30:27;19.50;99.90
13682;DHT22;6913;49.892;7.936;2023-07-29T07:32:54;19.10;99.90
13682;DHT22;6913;49.892;7.936;2023-07-29T07:35:21;19.40;99.90
13682;DHT22;6913;49.892;7.936;2023-07-29T07:37:48;19.30;99.90
13682;DHT22;6913;49.892;7.936;2023-07-29T07:40:16;19.40;99.90
13682;DHT22;6913;49.892;7.936;2023-07-29T07:42:43;19.50;99.90
13682;DHT22;6913;49.892;7.936;2023-07-29T07:45:09;19.60;99.90
13682;DHT22;6913;49.892;7.936;2023-07-29T07:47:36;19.80;99.90
13682;DHT22;6913;49.892;7.936;2023-07-29T07:50:04;19.90;99.90
13682;DHT22;6913;49.892;7.936;2023-07-29T07:52:31;20.00;99.90
13682;DHT22;6913;49.892;7.936;2023-07-29T07:54:57;20.10;99.90
13682;DHT22;6913;49.892;7.936;2023-07-29T07:57:25;20.30;99.90
13682;DHT22;6913;49.892;7.936;2023-07-29T07:59:52;21.20;99.90
13682;DHT22;6913;49.892;7.936;2023-07-29T08:02:19;20.70;99.90
13682;DHT22;6913;49.892;7.936;2023-07-29T08:04:46;21.20;99.90
13682;DHT22;6913;49.892;7.936;2023-07-29T08:07:13;21.60;99.90
13682;DHT22;6913;49.892;7.936;2023-07-29T08:09:39;21.60;99.90
13682;DHT22;6913;49.892;7.936;2023-07-29T08:12:07;21.60;99.90
13682;DHT22;6913;49.892;7.936;2023-07-29T08:14:35;21.70;99.90
13682;DHT22;6913;49.892;7.936;2023-07-29T08:17:02;21.70;99.90
13682;DHT22;6913;49.892;7.936;2023-07-29T08:19:29;21.20;99.90
13682;DHT22;6913;49.892;7.936;2023-07-29T08:21:55;21.30;99.90
13682;DHT22;6913;49.892;7.936;2023-07-29T08:24:22;21.40;99.90
13682;DHT22;6913;49.892;7.936;2023-07-29T08:26:49;22.00;99.90
13682;DHT22;6913;49.892;7.936;2023-07-29T08:29:16;22.40;99.90
13682;DHT22;6913;49.892;7.936;2023-07-29T08:31:44;23.10;99.90
13682;DHT22;6913;49.892;7.936;2023-07-29T08:34:10;23.40;99.90
13682;DHT22;6913;49.892;7.936;2023-07-29T08:36:37;23.70;99.90
13682;DHT22;6913;49.892;7.936;2023-07-29T08:39:04;23.50;99.90
13682;DHT22;6913;49.892;7.936;2023-07-29T08:41:35;23.50;99.90
13682;DHT22;6913;49.892;7.936;2023-07-29T08:44:15;23.60;99.90
13682;DHT22;6913;49.892;7.936;2023-07-29T08:46:45;23.50;99.90
13682;DHT22;6913;49.892;7.936;2023-07-29T08:49:13;23.30;99.90
13682;DHT22;6913;49.892;7.936;2023-07-29T08:51:42;23.40;99.90
13682;DHT22;6913;49.892;7.936;2023-07-29T08:54:10;23.30;99.90
13682;DHT22;6913;49.892;7.936;2023-07-29T08:56:37;23.20;99.90
13682;DHT22;6913;49.892;7.936;2023-07-29T08:59:04;23.30;99.90
13682;DHT22;6913;49.892;7.936;2023-07-29T09:01:31;23.20;99.90
13682;DHT22;6913;49.892;7.936;2023-07-29T09:03:59;23.20;99.90
13682;DHT22;6913;49.892;7.936;2023-07-29T09:06:26;23.30;99.90
13682;DHT22;6913;49.892;7.936;2023-07-29T09:08:54;23.40;99.90
13682;DHT22;6913;49.892;7.936;2023-07-29T09:11:22;23.40;99.90
13682;DHT22;6913;49.892;7.936;2023-07-29T09:13:49;23.40;99.90
13682;DHT22;6913;49.892;7.936;2023-07-29T09:16:15;23.30;99.90
13682;DHT22;6913;49.892;7.936;2023-07-29T09:18:42;23.40;99.90
13682;DHT22;6913;49.892;7.936;2023-07-29T09:21:11;23.50;99.90
13682;DHT22;6913;49.892;7.936;2023-07-29T09:23:41;24.00;99.90
13682;DHT22;6913;49.892;7.936;2023-07-29T09:26:08;24.40;99.90
13682;DHT22;6913;49.892;7.936;2023-07-29T09:28:37;25.00;99.90
13682;DHT22;6913;49.892;7.936;2023-07-29T09:31:04;25.50;99.90
13682;DHT22;6913;49.892;7.936;2023-07-29T09:33:34;25.90;99.90
13682;DHT22;6913;49.892;7.936;2023-07-29T09:36:02;25.70;99.90
13682;DHT22;6913;49.892;7.936;2023-07-29T09:38:31;25.10;99.90
13682;DHT22;6913;49.892;7.936;2023-07-29T09:40:58;25.00;99.90
13682;DHT22;6913;49.892;7.936;2023-07-29T09:43:30;25.70;99.90
13682;DHT22;6913;49.892;7.936;2023-07-29T09:45:59;26.60;99.90
13682;DHT22;6913;49.892;7.936;2023-07-29T09:48:27;27.10;99.90
13682;DHT22;6913;49.892;7.936;2023-07-29T09:50:54;27.50;99.90
13682;DHT22;6913;49.892;7.936;2023-07-29T09:53:21;27.70;99.90
13682;DHT22;6913;49.892;7.936;2023-07-29T09:55:49;27.90;99.90
13682;DHT22;6913;49.892;7.936;2023-07-29T09:58:25;28.20;99.90
13682;DHT22;6913;49.892;7.936;2023-07-29T10:00:52;28.60;99.90
13682;DHT22;6913;49.892;7.936;2023-07-29T10:03:21;28.30;99.90
13682;DHT22;6913;49.892;7.936;2023-07-29T10:05:48;28.10;99.90
13682;DHT22;6913;49.892;7.936;2023-07-29T10:08:16;28.20;99.90
13682;DHT22;6913;49.892;7.936;2023-07-29T10:10:44;28.60;99.90
13682;DHT22;6913;49.892;7.936;2023-07-29T10:13:12;28.80;99.90
13682;DHT22;6913;49.892;7.936;2023-07-29T10:15:40;27.80;99.90
13682;DHT22;6913;49.892;7.936;2023-07-29T10:18:07;28.30;99.90
13682;DHT22;6913;49.892;7.936;2023-07-29T10:20:35;28.20;99.90
13682;DHT22;6913;49.892;7.936;2023-07-29T10:23:03;27.40;99.90
13682;DHT22;6913;49.892;7.936;2023-07-29T10:25:37;26.80;99.90
13682;DHT22;6913;49.892;7.936;2023-07-29T10:28:06;26.50;99.90
13682;DHT22;6913;49.892;7.936;2023-07-29T10:30:34;26.30;99.90
13682;DHT22;6913;49.892;7.936;2023-07-29T10:33:03;26.10;99.90
13682;DHT22;6913;49.892;7.936;2023-07-29T10:35:30;25.80;99.90
13682;DHT22;6913;49.892;7.936;2023-07-29T10:37:59;25.60;99.90
13682;DHT22;6913;49.892;7.936;2023-07-29T10:40:27;25.60;99.90
13682;DHT22;6913;49.892;7.936;2023-07-29T10:43:11;25.40;99.90
13682;DHT22;6913;49.892;7.936;2023-07-29T10:45:41;25.70;99.90
13682;DHT22;6913;49.892;7.936;2023-07-29T10:48:10;25.70;99.90
13682;DHT22;6913;49.892;7.936;2023-07-29T10:50:37;25.70;99.90
13682;DHT22;6913;49.892;7.936;2023-07-29T10:53:04;26.00;99.90
13682;DHT22;6913;49.892;7.936;2023-07-29T10:55:33;25.90;99.90
13682;DHT22;6913;49.892;7.936;2023-07-29T10:58:11;26.00;99.90
13682;DHT22;6913;49.892;7.936;2023-07-29T11:00:41;25.90;99.90
13682;DHT22;6913;49.892;7.936;2023-07-29T11:03:08;25.80;99.90
13682;DHT22;6913;49.892;7.936;2023-07-29T11:05:43;25.60;99.90
13682;DHT22;6913;49.892;7.936;2023-07-29T11:08:21;25.60;99.90
13682;DHT22;6913;49.892;7.936;2023-07-29T11:10:59;25.40;99.90
13682;DHT22;6913;49.892;7.936;2023-07-29T11:13:27;25.30;99.90
13682;DHT22;6913;49.892;7.936;2023-07-29T11:15:56;25.10;99.90
13682;DHT22;6913;49.892;7.936;2023-07-29T11:18:27;25.10;99.90
13682;DHT22;6913;49.892;7.936;2023-07-29T11:20:55;25.00;99.90
13682;DHT22;6913;49.892;7.936;2023-07-29T11:23:27;25.60;99.90
13682;DHT22;6913;49.892;7.936;2023-07-29T11:25:55;26.50;99.90
13682;DHT22;6913;49.892;7.936;2023-07-29T11:28:22;27.00;99.90
13682;DHT22;6913;49.892;7.936;2023-07-29T11:30:50;27.50;99.90
13682;DHT22;6913;49.892;7.936;2023-07-29T11:33:20;28.00;99.90
13682;DHT22;6913;49.892;7.936;2023-07-29T11:35:47;27.70;99.90
13682;DHT22;6913;49.892;7.936;2023-07-29T11:38:15;28.10;99.90
13682;DHT22;6913;49.892;7.936;2023-07-29T11:40:43;28.20;99.90
13682;DHT22;6913;49.892;7.936;2023-07-29T11:45:45;28.40;99.90
13682;DHT22;6913;49.892;7.936;2023-07-29T11:48:12;28.30;99.90
13682;DHT22;6913;49.892;7.936;2023-07-29T11:50:40;28.10;99.90
13682;DHT22;6913;49.892;7.936;2023-07-29T11:53:07;28.30;99.90
13682;DHT22;6913;49.892;7.936;2023-07-29T11:55:34;28.60;99.90
13682;DHT22;6913;49.892;7.936;2023-07-29T11:58:01;28.90;99.90
13682;DHT22;6913;49.892;7.936;2023-07-29T12:00:28;28.70;99.90
13682;DHT22;6913;49.892;7.936;2023-07-29T12:02:56;28.70;99.90
13682;DHT22;6913;49.892;7.936;2023-07-29T12:05:23;28.90;99.90
13682;DHT22;6913;49.892;7.936;2023-07-29T12:07:52;29.10;98.60
13682;DHT22;6913;49.892;7.936;2023-07-29T12:10:20;29.00;99.90
13682;DHT22;6913;49.892;7.936;2023-07-29T12:12:48;29.10;99.80
13682;DHT22;6913;49.892;7.936;2023-07-29T12:15:23;29.00;99.70
13682;DHT22;6913;49.892;7.936;2023-07-29T12:17:53;29.10;99.90
13682;DHT22;6913;49.892;7.936;2023-07-29T12:20:22;29.00;98.40
13682;DHT22;6913;49.892;7.936;2023-07-29T12:22:53;28.80;97.50
13682;DHT22;6913;49.892;7.936;2023-07-29T12:25:20;28.70;99.90
13682;DHT22;6913;49.892;7.936;2023-07-29T12:27:47;29.00;99.30
13682;DHT22;6913;49.892;7.936;2023-07-29T12:30:14;28.80;98.30
13682;DHT22;6913;49.892;7.936;2023-07-29T12:32:45;29.10;99.90
13682;DHT22;6913;49.892;7.936;2023-07-29T12:35:12;29.40;97.60
13682;DHT22;6913;49.892;7.936;2023-07-29T12:37:39;29.70;97.10
13682;DHT22;6913;49.892;7.936;2023-07-29T12:40:21;29.30;97.20
13682;DHT22;6913;49.892;7.936;2023-07-29T12:42:49;28.80;98.30
13682;DHT22;6913;49.892;7.936;2023-07-29T12:45:16;28.30;99.90
13682;DHT22;6913;49.892;7.936;2023-07-29T12:47:43;28.20;99.60
13682;DHT22;6913;49.892;7.936;2023-07-29T12:50:10;28.30;98.70
13682;DHT22;6913;49.892;7.936;2023-07-29T12:52:37;28.60;99.20
13682;DHT22;6913;49.892;7.936;2023-07-29T12:55:04;29.10;98.30
13682;DHT22;6913;49.892;7.936;2023-07-29T12:57:35;29.20;99.00
13682;DHT22;6913;49.892;7.936;2023-07-29T13:00:02;29.30;95.90
13682;DHT22;6913;49.892;7.936;2023-07-29T13:02:29;28.80;98.50
13682;DHT22;6913;49.892;7.936;2023-07-29T13:04:56;28.50;96.50
13682;DHT22;6913;49.892;7.936;2023-07-29T13:07:23;28.90;96.60
13682;DHT22;6913;49.892;7.936;2023-07-29T13:09:49;29.00;95.60
13682;DHT22;6913;49.892;7.936;2023-07-29T13:12:16;29.20;95.30
13682;DHT22;6913;49.892;7.936;2023-07-29T13:14:44;29.40;95.90
13682;DHT22;6913;49.892;7.936;2023-07-29T13:17:11;29.10;95.40
13682;DHT22;6913;49.892;7.936;2023-07-29T13:19:38;29.30;94.10
13682;DHT22;6913;49.892;7.936;2023-07-29T13:22:05;29.30;93.50
13682;DHT22;6913;49.892;7.936;2023-07-29T13:24:32;28.50;94.30
13682;DHT22;6913;49.892;7.936;2023-07-29T13:26:58;28.60;95.10
13682;DHT22;6913;49.892;7.936;2023-07-29T13:29:25;28.90;95.10
13682;DHT22;6913;49.892;7.936;2023-07-29T13:31:53;29.40;97.60
13682;DHT22;6913;49.892;7.936;2023-07-29T13:34:20;29.70;93.70
13682;DHT22;6913;49.892;7.936;2023-07-29T13:36:47;29.60;92.20
13682;DHT22;6913;49.892;7.936;2023-07-29T13:39:14;29.70;92.70
13682;DHT22;6913;49.892;7.936;2023-07-29T13:41:41;30.00;91.70
13682;DHT22;6913;49.892;7.936;2023-07-29T13:44:08;30.00;90.80
13682;DHT22;6913;49.892;7.936;2023-07-29T13:46:34;30.10;90.00
13682;DHT22;6913;49.892;7.936;2023-07-29T13:49:02;29.70;90.20
13682;DHT22;6913;49.892;7.936;2023-07-29T13:51:29;29.30;91.60
13682;DHT22;6913;49.892;7.936;2023-07-29T13:53:56;29.00;91.60
13682;DHT22;6913;49.892;7.936;2023-07-29T13:56:23;28.70;92.60
13682;DHT22;6913;49.892;7.936;2023-07-29T13:58:50;29.10;92.80
13682;DHT22;6913;49.892;7.936;2023-07-29T14:01:17;29.60;91.60
13682;DHT22;6913;49.892;7.936;2023-07-29T14:03:44;29.50;86.60
13682;DHT22;6913;49.892;7.936;2023-07-29T14:06:12;29.20;91.40
13682;DHT22;6913;49.892;7.936;2023-07-29T14:08:39;29.10;92.40
13682;DHT22;6913;49.892;7.936;2023-07-29T14:11:07;28.60;92.10
13682;DHT22;6913;49.892;7.936;2023-07-29T14:13:34;28.60;94.50
13682;DHT22;6913;49.892;7.936;2023-07-29T14:16:01;28.90;95.40
13682;DHT22;6913;49.892;7.936;2023-07-29T14:18:28;29.00;92.90
13682;DHT22;6913;49.892;7.936;2023-07-29T14:20:55;28.80;91.10
13682;DHT22;6913;49.892;7.936;2023-07-29T14:23:23;28.20;93.50
13682;DHT22;6913;49.892;7.936;2023-07-29T14:25:50;27.90;94.50
13682;DHT22;6913;49.892;7.936;2023-07-29T14:28:17;27.80;96.10
13682;DHT22;6913;49.892;7.936;2023-07-29T14:30:43;27.60;96.30
13682;DHT22;6913;49.892;7.936;2023-07-29T14:33:10;27.80;97.20
13682;DHT22;6913;49.892;7.936;2023-07-29T14:35:37;28.00;98.70
13682;DHT22;6913;49.892;7.936;2023-07-29T14:38:04;28.50;94.60
13682;DHT22;6913;49.892;7.936;2023-07-29T14:40:32;28.80;94.60
13682;DHT22;6913;49.892;7.936;2023-07-29T14:42:59;29.20;94.80
13682;DHT22;6913;49.892;7.936;2023-07-29T14:45:27;29.50;92.80
13682;DHT22;6913;49.892;7.936;2023-07-29T14:47:53;29.50;91.90
13682;DHT22;6913;49.892;7.936;2023-07-29T14:50:20;29.70;92.50
13682;DHT22;6913;49.892;7.936;2023-07-29T14:52:47;29.40;90.20
13682;DHT22;6913;49.892;7.936;2023-07-29T14:55:14;28.90;91.80
13682;DHT22;6913;49.892;7.936;2023-07-29T14:57:42;29.00;92.80
13682;DHT22;6913;49.892;7.936;2023-07-29T15:00:10;29.10;91.00
13682;DHT22;6913;49.892;7.936;2023-07-29T15:02:37;29.30;92.20
13682;DHT22;6913;49.892;7.936;2023-07-29T15:05:05;29.30;93.00
13682;DHT22;6913;49.892;7.936;2023-07-29T15:07:32;29.30;91.70
13682;DHT22;6913;49.892;7.936;2023-07-29T15:09:58;29.30;91.00
13682;DHT22;6913;49.892;7.936;2023-07-29T15:12:25;29.10;93.30
13682;DHT22;6913;49.892;7.936;2023-07-29T15:14:53;28.80;92.70
13682;DHT22;6913;49.892;7.936;2023-07-29T15:17:20;28.50;93.80
13682;DHT22;6913;49.892;7.936;2023-07-29T15:19:47;28.40;93.20
13682;DHT22;6913;49.892;7.936;2023-07-29T15:22:50;28.50;94.50
13682;DHT22;6913;49.892;7.936;2023-07-29T15:25:17;28.80;93.60
13682;DHT22;6913;49.892;7.936;2023-07-29T15:27:44;28.60;93.80
13682;DHT22;6913;49.892;7.936;2023-07-29T15:30:12;28.60;91.80
13682;DHT22;6913;49.892;7.936;2023-07-29T15:32:39;28.70;93.40
13682;DHT22;6913;49.892;7.936;2023-07-29T15:35:07;28.60;91.70
13682;DHT22;6913;49.892;7.936;2023-07-29T15:37:34;28.60;92.00
13682;DHT22;6913;49.892;7.936;2023-07-29T15:40:01;28.70;91.10
13682;DHT22;6913;49.892;7.936;2023-07-29T15:42:29;28.70;90.40
13682;DHT22;6913;49.892;7.936;2023-07-29T15:44:55;28.60;92.60
13682;DHT22;6913;49.892;7.936;2023-07-29T15:47:23;28.70;93.40
13682;DHT22;6913;49.892;7.936;2023-07-29T15:49:50;28.80;91.10